sensor_id;sensor_type;location;lat;lon;timestamp;temperature;humidity
14057;DHT22;7103;54.300;10.180;2023-12-29T00:01:35;9.50;99.90
14057;DHT22;7103;54.300;10.180;2023-12-29T00:04:02;9.50;99.90
14057;DHT22;7103;54.300;10.180;2023-12-29T00:06:29;9.50;99.90
14057;DHT22;7103;54.300;10.180;2023-12-29T00:08:56;9.50;99.90
14057;DHT22;7103;54.300;10.180;2023-12-29T00:11:23;9.50;99.90
14057;DHT22;7103;54.300;10.180;2023-12-29T00:13:50;9.50;99.90
14057;DHT22;7103;54.300;10.180;2023-12-29T00:16:17;9.70;99.90
14057;DHT22;7103;54.300;10.180;2023-12-29T00:18:44;9.60;99.90
14057;DHT22;7103;54.300;10.180;2023-12-29T00:21:11;9.50;99.90
14057;DHT22;7103;54.300;10.180;2023-12-29T00:23:38;9.50;99.90
14057;DHT22;7103;54.300;10.180;2023-12-29T00:26:05;9.50;99.90
14057;DHT22;7103;54.300;10.180;2023-12-29T00:28:32;9.50;99.90
14057;DHT22;7103;54.300;10.180;2023-12-29T00:30:59;9.50;99.90
14057;DHT22;7103;54.300;10.180;2023-12-29T00:33:29;9.40;99.90
14057;DHT22;7103;54.300;10.180;2023-12-29T00:35:57;9.50;99.90
14057;DHT22;7103;54.300;10.180;2023-12-29T00:38:26;9.50;99.90
14057;DHT22;7103;54.300;10.180;2023-12-29T00:40:54;9.50;99.90
14057;DHT22;7103;54.300;10.180;2023-12-29T00:43:21;9.50;99.90
14057;DHT22;7103;54.300;10.180;2023-12-29T00:45:49;9.60;99.90
14057;DHT22;7103;54.300;10.180;2023-12-29T00:48:16;9.50;99.90
14057;DHT22;7103;54.300;10.180;2023-12-29T00:50:43;9.50;99.90
14057;DHT22;7103;54.300;10.180;2023-12-29T00:53:10;9.40;99.90
14057;DHT22;7103;54.300;10.180;2023-12-29T00:55:37;9.40;99.90
14057;DHT22;7103;54.300;10.180;2023-12-29T00:58:04;9.40;99.90
14057;DHT22;7103;54.300;10.180;2023-12-29T01:00:31;9.40;99.90
14057;DHT22;7103;54.300;10.180;2023-12-29T01:02:58;9.40;99.90
14057;DHT22;7103;54.300;10.180;2023-12-29T01:05:25;9.50;99.90
14057;DHT22;7103;54.300;10.180;2023-12-29T01:07:52;9.30;99.90
14057;DHT22;7103;54.300;10.180;2023-12-29T01:10:18;9.30;99.90
14057;DHT22;7103;54.300;10.180;2023-12-29T01:12:46;9.40;99.90
14057;DHT22;7103;54.300;10.180;2023-12-29T01:15:13;9.30;99.90
14057;DHT22;7103;54.300;10.180;2023-12-29T01:17:40;9.30;99.90
14057;DHT22;7103;54.300;10.180;2023-12-29T01:20:07;9.30;99.90
14057;DHT22;7103;54.300;10.180;2023-12-29T01:22:34;9.30;99.90
14057;DHT22;7103;54.300;10.180;2023-12-29T01:25:01;9.40;99.90
14057;DHT22;7103;54.300;10.180;2023-12-29T01:27:29;9.40;99.90
14057;DHT22;7103;54.300;10.180;2023-12-29T01:29:56;9.30;99.90
14057;DHT22;7103;54.300;10.180;2023-12-29T01:32:23;9.40;99.90
14057;DHT22;7103;54.300;10.180;2023-12-29T01:34:52;9.40;99.90
14057;DHT22;7103;54.300;10.180;2023-12-29T01:37:19;9.40;99.90
14057;DHT22;7103;54.300;10.180;2023-12-29T01:39:46;9.40;99.90
14057;DHT22;7103;54.300;10.180;2023-12-29T01:42:13;9.40;99.90
14057;DHT22;7103;54.300;10.180;2023-12-29T01:44:40;9.50;99.90
14057;DHT22;7103;54.300;10.180;2023-12-29T01:47:14;9.40;99.90
14057;DHT22;7103;54.300;10.180;2023-12-29T01:49:45;9.40;99.90
14057;DHT22;7103;54.300;10.180;2023-12-29T01:52:14;9.40;99.90
14057;DHT22;7103;54.300;10.180;2023-12-29T01:54:41;9.40;99.90
14057;DHT22;7103;54.300;10.180;2023-12-29T01:57:09;9.40;99.90
14057;DHT22;7103;54.300;10.180;2023-12-29T01:59:37;9.40;99.90
14057;DHT22;7103;54.300;10.180;2023-12-29T02:02:05;9.40;99.90
14057;DHT22;7103;54.300;10.180;2023-12-29T02:04:32;9.50;99.90
14057;DHT22;7103;54.300;10.180;2023-12-29T02:06:59;9.40;99.90
14057;DHT22;7103;54.300;10.180;2023-12-29T02:09:26;9.50;99.90
14057;DHT22;7103;54.300;10.180;2023-12-29T02:11:54;9.50;99.90
14057;DHT22;7103;54.300;10.180;2023-12-29T02:14:21;9.50;99.90
14057;DHT22;7103;54.300;10.180;2023-12-29T02:19:36;9.40;99.90
14057;DHT22;7103;54.300;10.180;2023-12-29T02:22:05;9.40;99.90
14057;DHT22;7103;54.300;10.180;2023-12-29T02:24:36;9.50;99.90
14057;DHT22;7103;54.300;10.180;2023-12-29T02:30:26;9.50;99.90
14057;DHT22;7103;54.300;10.180;2023-12-29T02:32:59;9.50;99.90
14057;DHT22;7103;54.300;10.180;2023-12-29T02:35:29;9.60;99.90
14057;DHT22;7103;54.300;10.180;2023-12-29T02:37:58;9.60;99.90
14057;DHT22;7103;54.300;10.180;2023-12-29T02:40:26;9.60;99.90
14057;DHT22;7103;54.300;10.180;2023-12-29T02:42:53;9.60;99.90
14057;DHT22;7103;54.300;10.180;2023-12-29T02:45:19;9.70;99.90
14057;DHT22;7103;54.300;10.180;2023-12-29T02:47:47;9.70;99.90
14057;DHT22;7103;54.300;10.180;2023-12-29T02:50:14;9.70;99.90
14057;DHT22;7103;54.300;10.180;2023-12-29T02:52:41;9.70;99.90
14057;DHT22;7103;54.300;10.180;2023-12-29T02:55:08;9.60;99.90
14057;DHT22;7103;54.300;10.180;2023-12-29T02:57:35;9.60;99.90
14057;DHT22;7103;54.300;10.180;2023-12-29T03:00:03;9.60;99.90
14057;DHT22;7103;54.300;10.180;2023-12-29T03:02:30;9.70;99.90
14057;DHT22;7103;54.300;10.180;2023-12-29T03:04:58;9.60;99.90
14057;DHT22;7103;54.300;10.180;2023-12-29T03:07:24;9.60;99.90
14057;DHT22;7103;54.300;10.180;2023-12-29T03:09:51;9.50;99.90
14057;DHT22;7103;54.300;10.180;2023-12-29T03:12:18;9.40;99.90
14057;DHT22;7103;54.300;10.180;2023-12-29T03:14:45;9.40;99.90
14057;DHT22;7103;54.300;10.180;2023-12-29T03:17:13;9.50;99.90
14057;DHT22;7103;54.300;10.180;2023-12-29T03:19:40;9.50;99.90
14057;DHT22;7103;54.300;10.180;2023-12-29T03:22:08;9.50;99.90
14057;DHT22;7103;54.300;10.180;2023-12-29T03:24:35;9.50;99.90
14057;DHT22;7103;54.300;10.180;2023-12-29T03:27:02;9.50;99.90
14057;DHT22;7103;54.300;10.180;2023-12-29T03:29:28;9.50;99.90
14057;DHT22;7103;54.300;10.180;2023-12-29T03:31:55;9.50;99.90
14057;DHT22;7103;54.300;10.180;2023-12-29T03:34:22;9.60;99.90
14057;DHT22;7103;54.300;10.180;2023-12-29T03:36:49;9.70;99.90
14057;DHT22;7103;54.300;10.180;2023-12-29T03:39:16;9.70;99.90
14057;DHT22;7103;54.300;10.180;2023-12-29T03:41:43;9.70;99.90
14057;DHT22;7103;54.300;10.180;2023-12-29T03:44:10;9.80;99.90
14057;DHT22;7103;54.300;10.180;2023-12-29T03:46:36;9.80;99.90
14057;DHT22;7103;54.300;10.180;2023-12-29T03:49:03;9.90;99.90
14057;DHT22;7103;54.300;10.180;2023-12-29T03:51:30;10.00;99.90
14057;DHT22;7103;54.300;10.180;2023-12-29T03:53:57;9.90;99.90
14057;DHT22;7103;54.300;10.180;2023-12-29T03:56:27;9.90;99.90
14057;DHT22;7103;54.300;10.180;2023-12-29T03:58:54;9.90;99.90
14057;DHT22;7103;54.300;10.180;2023-12-29T04:01:21;9.90;99.90
14057;DHT22;7103;54.300;10.180;2023-12-29T04:03:48;9.90;99.90
14057;DHT22;7103;54.300;10.180;2023-12-29T04:06:15;9.90;99.90
14057;DHT22;7103;54.300;10.180;2023-12-29T04:08:42;10.00;99.90
14057;DHT22;7103;54.300;10.180;2023-12-29T04:11:08;9.90;99.90
14057;DHT22;7103;54.300;10.180;2023-12-29T04:13:36;9.90;99.90
14057;DHT22;7103;54.300;10.180;2023-12-29T04:16:03;9.90;99.90
14057;DHT22;7103;54.300;10.180;2023-12-29T04:18:30;9.90;99.90
14057;DHT22;7103;54.300;10.180;2023-12-29T04:20:57;9.90;99.90
14057;DHT22;7103;54.300;10.180;2023-12-29T04:23:24;9.90;99.90
14057;DHT22;7103;54.300;10.180;2023-12-29T04:25:51;9.80;99.90
14057;DHT22;7103;54.300;10.180;2023-12-29T04:28:18;9.90;99.90
14057;DHT22;7103;54.300;10.180;2023-12-29T04:30:45;9.90;99.90
14057;DHT22;7103;54.300;10.180;2023-12-29T04:33:12;9.90;99.90
14057;DHT22;7103;54.300;10.180;2023-12-29T04:35:39;9.90;99.90
14057;DHT22;7103;54.300;10.180;2023-12-29T04:38:06;9.90;99.90
14057;DHT22;7103;54.300;10.180;2023-12-29T04:40:33;9.90;99.90
14057;DHT22;7103;54.300;10.180;2023-12-29T04:43:00;9.80;99.90
14057;DHT22;7103;54.300;10.180;2023-12-29T04:45:26;9.90;99.90
14057;DHT22;7103;54.300;10.180;2023-12-29T04:47:53;10.00;99.90
14057;DHT22;7103;54.300;10.180;2023-12-29T04:50:20;9.80;99.90
14057;DHT22;7103;54.300;10.180;2023-12-29T04:52:47;9.70;99.90
14057;DHT22;7103;54.300;10.180;2023-12-29T04:55:15;9.70;99.90
14057;DHT22;7103;54.300;10.180;2023-12-29T04:57:42;9.70;99.90
14057;DHT22;7103;54.300;10.180;2023-12-29T05:00:10;9.70;99.90
14057;DHT22;7103;54.300;10.180;2023-12-29T05:02:37;9.70;99.90
14057;DHT22;7103;54.300;10.180;2023-12-29T05:05:04;9.70;99.90
14057;DHT22;7103;54.300;10.180;2023-12-29T05:07:31;9.70;99.90
14057;DHT22;7103;54.300;10.180;2023-12-29T05:09:58;9.80;99.90
14057;DHT22;7103;54.300;10.180;2023-12-29T05:12:24;9.70;99.90
14057;DHT22;7103;54.300;10.180;2023-12-29T05:14:51;9.70;99.90
14057;DHT22;7103;54.300;10.180;2023-12-29T05:17:18;9.60;99.90
14057;DHT22;7103;54.300;10.180;2023-12-29T05:19:45;9.60;99.90
14057;DHT22;7103;54.300;10.180;2023-12-29T05:22:12;9.60;99.90
14057;DHT22;7103;54.300;10.180;2023-12-29T05:24:42;9.60;99.90
14057;DHT22;7103;54.300;10.180;2023-12-29T05:27:09;9.60;99.90
14057;DHT22;7103;54.300;10.180;2023-12-29T05:29:36;9.50;99.90
14057;DHT22;7103;54.300;10.180;2023-12-29T05:32:05;9.60;99.90
14057;DHT22;7103;54.300;10.180;2023-12-29T05:34:32;9.60;99.90
14057;DHT22;7103;54.300;10.180;2023-12-29T05:36:59;9.50;99.90
14057;DHT22;7103;54.300;10.180;2023-12-29T05:39:26;9.50;99.90
14057;DHT22;7103;54.300;10.180;2023-12-29T05:41:52;9.60;99.90
14057;DHT22;7103;54.300;10.180;2023-12-29T05:44:19;9.60;99.90
14057;DHT22;7103;54.300;10.180;2023-12-29T05:46:46;9.50;99.90
14057;DHT22;7103;54.300;10.180;2023-12-29T05:49:14;9.50;99.90
14057;DHT22;7103;54.300;10.180;2023-12-29T05:51:42;9.40;99.90
14057;DHT22;7103;54.300;10.180;2023-12-29T05:54:09;9.30;99.90
14057;DHT22;7103;54.300;10.180;2023-12-29T05:56:36;9.40;99.90
14057;DHT22;7103;54.300;10.180;2023-12-29T05:59:03;9.40;99.90
14057;DHT22;7103;54.300;10.180;2023-12-29T06:01:30;9.40;99.90
14057;DHT22;7103;54.300;10.180;2023-12-29T06:03:57;9.40;99.90
14057;DHT22;7103;54.300;10.180;2023-12-29T06:06:24;9.40;99.90
14057;DHT22;7103;54.300;10.180;2023-12-29T06:08:51;9.40;99.90
14057;DHT22;7103;54.300;10.180;2023-12-29T06:11:18;9.30;99.90
14057;DHT22;7103;54.300;10.180;2023-12-29T06:13:45;9.30;99.90
14057;DHT22;7103;54.300;10.180;2023-12-29T06:16:18;9.30;99.90
14057;DHT22;7103;54.300;10.180;2023-12-29T06:18:45;9.30;99.90
14057;DHT22;7103;54.300;10.180;2023-12-29T06:21:13;9.30;99.90
14057;DHT22;7103;54.300;10.180;2023-12-29T06:23:39;9.30;99.90
14057;DHT22;7103;54.300;10.180;2023-12-29T06:26:17;9.20;99.90
14057;DHT22;7103;54.300;10.180;2023-12-29T06:28:45;9.20;99.90
14057;DHT22;7103;54.300;10.180;2023-12-29T06:31:12;9.20;99.90
14057;DHT22;7103;54.300;10.180;2023-12-29T06:33:42;9.20;99.90
14057;DHT22;7103;54.300;10.180;2023-12-29T06:36:10;9.20;98.30
14057;DHT22;7103;54.300;10.180;2023-12-29T06:38:37;9.20;92.70
14057;DHT22;7103;54.300;10.180;2023-12-29T06:41:04;9.10;93.20
14057;DHT22;7103;54.300;10.180;2023-12-29T06:43:31;9.10;90.90
14057;DHT22;7103;54.300;10.180;2023-12-29T06:45:58;9.20;89.70
14057;DHT22;7103;54.300;10.180;2023-12-29T06:48:25;9.20;78.70
14057;DHT22;7103;54.300;10.180;2023-12-29T06:50:52;9.20;65.20
14057;DHT22;7103;54.300;10.180;2023-12-29T06:53:19;9.20;56.00
14057;DHT22;7103;54.300;10.180;2023-12-29T06:55:46;9.20;51.60
14057;DHT22;7103;54.300;10.180;2023-12-29T06:58:14;9.20;46.40
14057;DHT22;7103;54.300;10.180;2023-12-29T07:00:40;9.20;34.60
14057;DHT22;7103;54.300;10.180;2023-12-29T07:03:13;9.20;21.40
14057;DHT22;7103;54.300;10.180;2023-12-29T07:05:40;9.20;21.40
14057;DHT22;7103;54.300;10.180;2023-12-29T07:08:07;9.20;21.20
14057;DHT22;7103;54.300;10.180;2023-12-29T07:10:33;9.20;10.90
14057;DHT22;7103;54.300;10.180;2023-12-29T07:13:00;9.10;16.10
14057;DHT22;7103;54.300;10.180;2023-12-29T07:15:27;9.20;10.60
14057;DHT22;7103;54.300;10.180;2023-12-29T07:17:54;9.20;10.70
14057;DHT22;7103;54.300;10.180;2023-12-29T07:20:21;9.20;8.50
14057;DHT22;7103;54.300;10.180;2023-12-29T07:22:48;9.20;9.20
14057;DHT22;7103;54.300;10.180;2023-12-29T07:25:15;9.20;5.30
14057;DHT22;7103;54.300;10.180;2023-12-29T07:27:42;9.20;10.80
14057;DHT22;7103;54.300;10.180;2023-12-29T07:30:10;9.20;11.70
14057;DHT22;7103;54.300;10.180;2023-12-29T07:32:37;9.20;21.40
14057;DHT22;7103;54.300;10.180;2023-12-29T07:35:04;9.20;50.90
14057;DHT22;7103;54.300;10.180;2023-12-29T07:37:31;9.10;61.70
14057;DHT22;7103;54.300;10.180;2023-12-29T07:39:58;9.10;59.40
14057;DHT22;7103;54.300;10.180;2023-12-29T07:42:25;9.10;67.40
14057;DHT22;7103;54.300;10.180;2023-12-29T07:44:52;9.00;63.20
14057;DHT22;7103;54.300;10.180;2023-12-29T07:47:21;9.00;75.20
14057;DHT22;7103;54.300;10.180;2023-12-29T07:49:48;9.00;78.40
14057;DHT22;7103;54.300;10.180;2023-12-29T07:52:15;9.00;78.30
14057;DHT22;7103;54.300;10.180;2023-12-29T07:54:42;9.10;78.50
14057;DHT22;7103;54.300;10.180;2023-12-29T07:57:09;9.00;78.40
14057;DHT22;7103;54.300;10.180;2023-12-29T07:59:36;9.20;84.00
14057;DHT22;7103;54.300;10.180;2023-12-29T08:02:03;9.00;71.80
14057;DHT22;7103;54.300;10.180;2023-12-29T08:04:29;9.00;70.90
14057;DHT22;7103;54.300;10.180;2023-12-29T08:06:56;9.10;54.50
14057;DHT22;7103;54.300;10.180;2023-12-29T08:09:23;9.10;36.90
14057;DHT22;7103;54.300;10.180;2023-12-29T08:11:50;9.30;23.80
14057;DHT22;7103;54.300;10.180;2023-12-29T08:14:17;9.20;21.40
14057;DHT22;7103;54.300;10.180;2023-12-29T08:16:44;9.10;20.30
14057;DHT22;7103;54.300;10.180;2023-12-29T08:19:12;9.10;5.80
14057;DHT22;7103;54.300;10.180;2023-12-29T08:21:39;9.00;4.70
14057;DHT22;7103;54.300;10.180;2023-12-29T08:24:06;9.00;9.50
14057;DHT22;7103;54.300;10.180;2023-12-29T08:26:33;9.10;9.80
14057;DHT22;7103;54.300;10.180;2023-12-29T08:29:00;9.10;8.00
14057;DHT22;7103;54.300;10.180;2023-12-29T08:31:26;9.10;9.00
14057;DHT22;7103;54.300;10.180;2023-12-29T08:33:55;9.20;1.00
14057;DHT22;7103;54.300;10.180;2023-12-29T08:36:22;9.20;1.00
14057;DHT22;7103;54.300;10.180;2023-12-29T08:38:49;9.20;1.00
14057;DHT22;7103;54.300;10.180;2023-12-29T08:41:16;9.20;1.00
14057;DHT22;7103;54.300;10.180;2023-12-29T08:43:43;9.20;1.00
14057;DHT22;7103;54.300;10.180;2023-12-29T08:46:09;9.20;1.00
14057;DHT22;7103;54.300;10.180;2023-12-29T08:48:36;9.30;1.00
14057;DHT22;7103;54.300;10.180;2023-12-29T08:51:03;9.30;1.00
14057;DHT22;7103;54.300;10.180;2023-12-29T08:53:30;9.30;1.00
14057;DHT22;7103;54.300;10.180;2023-12-29T08:56:01;9.20;1.00
14057;DHT22;7103;54.300;10.180;2023-12-29T08:58:29;9.30;1.00
14057;DHT22;7103;54.300;10.180;2023-12-29T09:00:56;9.30;1.00
14057;DHT22;7103;54.300;10.180;2023-12-29T09:03:23;9.50;1.00
14057;DHT22;7103;54.300;10.180;2023-12-29T09:05:50;9.40;1.00
14057;DHT22;7103;54.300;10.180;2023-12-29T09:08:17;9.50;1.00
14057;DHT22;7103;54.300;10.180;2023-12-29T09:10:44;9.40;1.00
14057;DHT22;7103;54.300;10.180;2023-12-29T09:13:11;9.50;1.00
14057;DHT22;7103;54.300;10.180;2023-12-29T09:15:38;9.40;1.00
14057;DHT22;7103;54.300;10.180;2023-12-29T09:18:05;9.50;1.00
14057;DHT22;7103;54.300;10.180;2023-12-29T09:20:33;9.40;1.00
14057;DHT22;7103;54.300;10.180;2023-12-29T09:23:00;9.50;1.00
14057;DHT22;7103;54.300;10.180;2023-12-29T09:25:27;9.50;1.00
14057;DHT22;7103;54.300;10.180;2023-12-29T09:27:54;9.40;1.00
14057;DHT22;7103;54.300;10.180;2023-12-29T09:30:21;9.40;1.00
14057;DHT22;7103;54.300;10.180;2023-12-29T09:32:48;9.40;1.00
14057;DHT22;7103;54.300;10.180;2023-12-29T09:35:15;9.40;1.00
14057;DHT22;7103;54.300;10.180;2023-12-29T09:37:43;9.40;1.00
14057;DHT22;7103;54.300;10.180;2023-12-29T09:40:11;9.40;1.00
14057;DHT22;7103;54.300;10.180;2023-12-29T09:42:39;9.40;1.00
14057;DHT22;7103;54.300;10.180;2023-12-29T09:45:10;9.40;1.00
14057;DHT22;7103;54.300;10.180;2023-12-29T09:47:40;9.40;1.00
14057;DHT22;7103;54.300;10.180;2023-12-29T09:50:10;9.40;1.00
14057;DHT22;7103;54.300;10.180;2023-12-29T09:52:39;9.50;1.00
14057;DHT22;7103;54.300;10.180;2023-12-29T09:55:10;9.60;1.00
14057;DHT22;7103;54.300;10.180;2023-12-29T09:57:40;9.60;1.00
14057;DHT22;7103;54.300;10.180;2023-12-29T10:00:11;9.60;1.00
14057;DHT22;7103;54.300;10.180;2023-12-29T10:02:38;9.60;1.00
14057;DHT22;7103;54.300;10.180;2023-12-29T10:05:05;9.70;1.00
14057;DHT22;7103;54.300;10.180;2023-12-29T10:07:36;9.70;1.00
14057;DHT22;7103;54.300;10.180;2023-12-29T10:10:06;9.70;1.00
14057;DHT22;7103;54.300;10.180;2023-12-29T10:12:35;9.70;1.00
14057;DHT22;7103;54.300;10.180;2023-12-29T10:15:12;9.70;1.00
14057;DHT22;7103;54.300;10.180;2023-12-29T10:20:48;9.90;1.00
14057;DHT22;7103;54.300;10.180;2023-12-29T10:23:17;10.00;1.00
14057;DHT22;7103;54.300;10.180;2023-12-29T10:25:45;9.90;1.00
14057;DHT22;7103;54.300;10.180;2023-12-29T10:28:13;9.90;1.00
14057;DHT22;7103;54.300;10.180;2023-12-29T10:30:40;9.90;1.00
14057;DHT22;7103;54.300;10.180;2023-12-29T10:33:07;9.90;1.00
14057;DHT22;7103;54.300;10.180;2023-12-29T10:35:36;10.00;1.00
14057;DHT22;7103;54.300;10.180;2023-12-29T10:38:11;10.10;1.00
14057;DHT22;7103;54.300;10.180;2023-12-29T10:40:40;10.10;1.00
14057;DHT22;7103;54.300;10.180;2023-12-29T10:43:09;10.10;1.00
14057;DHT22;7103;54.300;10.180;2023-12-29T10:45:37;10.10;1.00
14057;DHT22;7103;54.300;10.180;2023-12-29T10:48:05;10.10;1.00
14057;DHT22;7103;54.300;10.180;2023-12-29T10:50:45;10.00;1.00
14057;DHT22;7103;54.300;10.180;2023-12-29T10:53:16;10.10;1.00
14057;DHT22;7103;54.300;10.180;2023-12-29T10:55:44;10.20;1.00
14057;DHT22;7103;54.300;10.180;2023-12-29T10:58:11;10.10;1.00
14057;DHT22;7103;54.300;10.180;2023-12-29T11:00:38;10.20;1.00
14057;DHT22;7103;54.300;10.180;2023-12-29T11:03:05;10.10;1.00
14057;DHT22;7103;54.300;10.180;2023-12-29T11:05:33;10.00;1.00
14057;DHT22;7103;54.300;10.180;2023-12-29T11:08:00;10.00;1.00
14057;DHT22;7103;54.300;10.180;2023-12-29T11:10:29;10.00;1.00
14057;DHT22;7103;54.300;10.180;2023-12-29T11:12:57;10.00;1.00
14057;DHT22;7103;54.300;10.180;2023-12-29T11:15:24;10.00;1.00
14057;DHT22;7103;54.300;10.180;2023-12-29T11:17:53;10.10;1.00
14057;DHT22;7103;54.300;10.180;2023-12-29T11:20:23;10.00;1.00
14057;DHT22;7103;54.300;10.180;2023-12-29T11:22:52;10.00;1.00
14057;DHT22;7103;54.300;10.180;2023-12-29T11:25:20;10.00;1.00
14057;DHT22;7103;54.300;10.180;2023-12-29T11:27:48;10.00;1.00
14057;DHT22;7103;54.300;10.180;2023-12-29T11:30:15;9.90;1.00
14057;DHT22;7103;54.300;10.180;2023-12-29T11:32:53;10.00;1.00
14057;DHT22;7103;54.300;10.180;2023-12-29T11:35:44;10.00;1.00
14057;DHT22;7103;54.300;10.180;2023-12-29T11:43:38;10.20;1.00
14057;DHT22;7103;54.300;10.180;2023-12-29T11:46:05;10.20;1.00
14057;DHT22;7103;54.300;10.180;2023-12-29T11:48:57;10.30;1.00
14057;DHT22;7103;54.300;10.180;2023-12-29T11:51:34;10.30;1.00
14057;DHT22;7103;54.300;10.180;2023-12-29T11:54:02;10.30;1.00
14057;DHT22;7103;54.300;10.180;2023-12-29T11:56:40;10.20;1.00
14057;DHT22;7103;54.300;10.180;2023-12-29T11:59:17;10.20;1.00
14057;DHT22;7103;54.300;10.180;2023-12-29T12:01:50;10.10;1.00
14057;DHT22;7103;54.300;10.180;2023-12-29T12:04:40;10.10;1.00
14057;DHT22;7103;54.300;10.180;2023-12-29T12:12:47;9.80;1.00
14057;DHT22;7103;54.300;10.180;2023-12-29T12:18:04;9.70;1.00
14057;DHT22;7103;54.300;10.180;2023-12-29T12:20:33;9.80;1.00
14057;DHT22;7103;54.300;10.180;2023-12-29T12:23:02;9.70;1.00
14057;DHT22;7103;54.300;10.180;2023-12-29T12:25:30;9.80;1.00
14057;DHT22;7103;54.300;10.180;2023-12-29T12:28:05;9.80;1.00
14057;DHT22;7103;54.300;10.180;2023-12-29T12:30:33;9.80;1.00
14057;DHT22;7103;54.300;10.180;2023-12-29T12:33:04;9.70;1.00
14057;DHT22;7103;54.300;10.180;2023-12-29T12:35:32;9.60;1.00
14057;DHT22;7103;54.300;10.180;2023-12-29T12:38:16;9.60;1.00
14057;DHT22;7103;54.300;10.180;2023-12-29T12:40:49;9.60;1.00
14057;DHT22;7103;54.300;10.180;2023-12-29T12:43:17;9.60;1.00
14057;DHT22;7103;54.300;10.180;2023-12-29T12:45:48;9.50;1.00
14057;DHT22;7103;54.300;10.180;2023-12-29T12:48:24;9.50;1.00
14057;DHT22;7103;54.300;10.180;2023-12-29T12:50:55;9.40;1.00
14057;DHT22;7103;54.300;10.180;2023-12-29T12:53:23;9.30;1.00
14057;DHT22;7103;54.300;10.180;2023-12-29T12:55:51;9.00;1.00
14057;DHT22;7103;54.300;10.180;2023-12-29T12:58:19;8.80;1.00
14057;DHT22;7103;54.300;10.180;2023-12-29T13:00:50;8.70;1.00
14057;DHT22;7103;54.300;10.180;2023-12-29T13:03:21;8.30;1.00
14057;DHT22;7103;54.300;10.180;2023-12-29T13:05:48;8.00;1.00
14057;DHT22;7103;54.300;10.180;2023-12-29T13:08:17;7.60;1.00
14057;DHT22;7103;54.300;10.180;2023-12-29T13:11:00;7.50;1.00
14057;DHT22;7103;54.300;10.180;2023-12-29T13:13:41;7.30;1.00
14057;DHT22;7103;54.300;10.180;2023-12-29T13:16:10;7.20;1.00
14057;DHT22;7103;54.300;10.180;2023-12-29T13:18:37;7.20;1.00
14057;DHT22;7103;54.300;10.180;2023-12-29T13:21:06;7.30;1.00
14057;DHT22;7103;54.300;10.180;2023-12-29T13:23:34;7.30;1.00
14057;DHT22;7103;54.300;10.180;2023-12-29T13:26:09;7.60;1.00
14057;DHT22;7103;54.300;10.180;2023-12-29T13:28:37;7.50;1.00
14057;DHT22;7103;54.300;10.180;2023-12-29T13:31:09;7.60;1.00
14057;DHT22;7103;54.300;10.180;2023-12-29T13:33:49;7.80;1.00
14057;DHT22;7103;54.300;10.180;2023-12-29T13:36:25;7.90;1.00
14057;DHT22;7103;54.300;10.180;2023-12-29T13:38:58;8.10;1.00
14057;DHT22;7103;54.300;10.180;2023-12-29T13:41:30;8.20;1.00
14057;DHT22;7103;54.300;10.180;2023-12-29T13:43:59;8.40;1.00
14057;DHT22;7103;54.300;10.180;2023-12-29T13:46:27;8.70;1.00
14057;DHT22;7103;54.300;10.180;2023-12-29T13:48:54;8.70;1.00
14057;DHT22;7103;54.300;10.180;2023-12-29T13:51:26;8.70;1.00
14057;DHT22;7103;54.300;10.180;2023-12-29T13:54:00;8.80;1.00
14057;DHT22;7103;54.300;10.180;2023-12-29T13:56:27;8.90;1.00
14057;DHT22;7103;54.300;10.180;2023-12-29T13:58:54;8.90;1.00
14057;DHT22;7103;54.300;10.180;2023-12-29T14:01:22;8.90;1.00
14057;DHT22;7103;54.300;10.180;2023-12-29T14:03:59;9.00;1.00
14057;DHT22;7103;54.300;10.180;2023-12-29T14:06:36;9.00;1.00
14057;DHT22;7103;54.300;10.180;2023-12-29T14:09:04;9.00;1.00
14057;DHT22;7103;54.300;10.180;2023-12-29T14:11:31;9.10;1.00
14057;DHT22;7103;54.300;10.180;2023-12-29T14:13:59;9.10;1.00
14057;DHT22;7103;54.300;10.180;2023-12-29T14:16:26;9.10;1.00
14057;DHT22;7103;54.300;10.180;2023-12-29T14:18:55;9.10;1.00
14057;DHT22;7103;54.300;10.180;2023-12-29T14:21:26;9.00;1.00
14057;DHT22;7103;54.300;10.180;2023-12-29T14:24:10;9.00;1.00
14057;DHT22;7103;54.300;10.180;2023-12-29T14:26:54;9.00;1.00
14057;DHT22;7103;54.300;10.180;2023-12-29T14:29:26;9.00;1.00
14057;DHT22;7103;54.300;10.180;2023-12-29T14:31:54;9.00;1.00
14057;DHT22;7103;54.300;10.180;2023-12-29T14:34:23;9.00;1.00
14057;DHT22;7103;54.300;10.180;2023-12-29T14:36:51;9.10;1.00
14057;DHT22;7103;54.300;10.180;2023-12-29T14:39:18;9.00;1.00
14057;DHT22;7103;54.300;10.180;2023-12-29T14:41:44;9.00;1.00
14057;DHT22;7103;54.300;10.180;2023-12-29T14:44:12;9.00;1.00
14057;DHT22;7103;54.300;10.180;2023-12-29T14:46:39;9.00;1.00
14057;DHT22;7103;54.300;10.180;2023-12-29T14:49:07;9.10;1.00
14057;DHT22;7103;54.300;10.180;2023-12-29T14:51:34;9.00;1.00
14057;DHT22;7103;54.300;10.180;2023-12-29T14:54:01;8.90;1.00
14057;DHT22;7103;54.300;10.180;2023-12-29T14:56:30;8.90;1.00
14057;DHT22;7103;54.300;10.180;2023-12-29T14:58:57;8.90;1.00
14057;DHT22;7103;54.300;10.180;2023-12-29T15:01:24;8.90;1.00
14057;DHT22;7103;54.300;10.180;2023-12-29T15:03:53;9.10;1.00
14057;DHT22;7103;54.300;10.180;2023-12-29T15:06:20;8.90;1.00
14057;DHT22;7103;54.300;10.180;2023-12-29T15:08:47;8.90;1.00
14057;DHT22;7103;54.300;10.180;2023-12-29T15:11:13;8.80;1.00
14057;DHT22;7103;54.300;10.180;2023-12-29T15:13:40;8.80;1.00
14057;DHT22;7103;54.300;10.180;2023-12-29T15:16:07;8.80;1.00
14057;DHT22;7103;54.300;10.180;2023-12-29T15:18:34;8.80;1.00
14057;DHT22;7103;54.300;10.180;2023-12-29T15:21:01;8.80;1.00
14057;DHT22;7103;54.300;10.180;2023-12-29T15:23:28;8.80;1.00
14057;DHT22;7103;54.300;10.180;2023-12-29T15:25:55;8.80;1.00
14057;DHT22;7103;54.300;10.180;2023-12-29T15:28:22;8.80;1.00
14057;DHT22;7103;54.300;10.180;2023-12-29T15:30:50;8.80;1.00
14057;DHT22;7103;54.300;10.180;2023-12-29T15:33:17;8.70;1.00
14057;DHT22;7103;54.300;10.180;2023-12-29T15:35:45;8.80;1.00
14057;DHT22;7103;54.300;10.180;2023-12-29T15:38:12;8.80;1.00
14057;DHT22;7103;54.300;10.180;2023-12-29T15:40:40;8.80;1.00
14057;DHT22;7103;54.300;10.180;2023-12-29T15:43:06;8.90;1.00
14057;DHT22;7103;54.300;10.180;2023-12-29T15:45:34;8.80;1.00
14057;DHT22;7103;54.300;10.180;2023-12-29T15:48:02;8.70;1.00
14057;DHT22;7103;54.300;10.180;2023-12-29T15:50:31;8.60;1.00
14057;DHT22;7103;54.300;10.180;2023-12-29T15:52:58;8.80;1.00
14057;DHT22;7103;54.300;10.180;2023-12-29T15:55:25;8.80;1.00
14057;DHT22;7103;54.300;10.180;2023-12-29T15:57:52;8.60;1.00
14057;DHT22;7103;54.300;10.180;2023-12-29T16:00:19;8.70;1.00
14057;DHT22;7103;54.300;10.180;2023-12-29T16:02:47;8.70;1.00
14057;DHT22;7103;54.300;10.180;2023-12-29T16:05:14;8.90;1.00
14057;DHT22;7103;54.300;10.180;2023-12-29T16:07:41;8.70;1.00
14057;DHT22;7103;54.300;10.180;2023-12-29T16:10:08;8.70;1.00
14057;DHT22;7103;54.300;10.180;2023-12-29T16:12:36;8.70;1.00
14057;DHT22;7103;54.300;10.180;2023-12-29T16:15:03;8.70;1.00
14057;DHT22;7103;54.300;10.180;2023-12-29T16:17:30;8.70;1.00
14057;DHT22;7103;54.300;10.180;2023-12-29T16:19:57;8.70;1.00
14057;DHT22;7103;54.300;10.180;2023-12-29T16:22:24;8.70;1.00